1886 Severe Cyclonic Storm NOT_NAMED (1886306N10092)


IBTrACS version v04r00. Visit IBTrACS website for data access.
Please direct all questions to the IBTrACS Q and A forum

Storm track - Intensity - Wind Radii - Intensity Data - Source Data - All data

Summary Information

Storm ID 1886306N10092
Start Nov 2 00Z
Landfall Nov 9 06Z
Max Intensity 64 kt (Nov 3 00Z)
End Nov 15 03Z
ATCF IDs
Track status Best track data.

Storm track plot

Map of storm track

Intensity plots

Map of storm track

Radial wind information

No radial wind information for this storm


Position and Intensity Table

BASIN ISO_TIME_________ NATURE LAT LON DS824 WIND
degrees north degrees east kts
NI 1886-11-02 00:00:00 TS 10.40 92.20 30
NI 03:00:00 TS 10.43 92.09 30
NI 06:00:00 TS 10.48 91.97 30
NI 09:00:00 TS 10.53 91.87 30
NI 12:00:00 TS 10.57 91.77 30
NI 15:00:00 TS 10.63 91.62 38
NI 18:00:00 TS 10.68 91.48 47
NI 21:00:00 TS 10.74 91.35 55
NI 1886-11-03 00:00:00 TS 10.78 91.24 64
NI 03:00:00 TS 10.80 91.19 64
NI 06:00:00 TS 10.81 91.18 64
NI 09:00:00 TS 10.81 91.18 64
NI 12:00:00 TS 10.80 91.19 64
NI 15:00:00 TS 10.80 91.20 64
NI 18:00:00 TS 10.80 91.22 64
NI 21:00:00 TS 10.80 91.24 64
NI 1886-11-04 00:00:00 TS 10.80 91.23 64
NI 03:00:00 TS 10.80 91.14 64
NI 06:00:00 TS 10.81 90.98 64
NI 09:00:00 TS 10.85 90.76 64
NI 12:00:00 TS 10.89 90.52 64
NI 15:00:00 TS 10.90 90.30 64
NI 18:00:00 TS 10.91 90.10 64
NI 21:00:00 TS 10.95 89.90 64
NI 1886-11-05 00:00:00 TS 10.99 89.70 64
NI 03:00:00 TS 11.03 89.50 64
NI 06:00:00 TS 11.06 89.30 64
NI 09:00:00 TS 11.07 89.09 64
NI 12:00:00 TS 11.08 88.89 64
NI 15:00:00 TS 11.12 88.72 64
NI 18:00:00 TS 11.17 88.58 64
NI 21:00:00 TS 11.22 88.46 64
NI 1886-11-06 00:00:00 TS 11.27 88.30 64
NI 03:00:00 TS 11.33 88.04 64
NI 06:00:00 TS 11.37 87.71 64
NI 09:00:00 TS 11.42 87.39 64
NI 12:00:00 TS 11.47 87.07 64
NI 15:00:00 TS 11.52 86.75 64
NI 18:00:00 TS 11.58 86.46 64
NI 21:00:00 TS 11.66 86.20 64
NI 1886-11-07 00:00:00 TS 11.76 85.94 64
NI 03:00:00 TS 11.85 85.63 64
NI 06:00:00 TS 11.95 85.29 64
NI 09:00:00 TS 12.05 84.97 64
NI 12:00:00 TS 12.15 84.66 64
NI 15:00:00 TS 12.25 84.35 64
NI 18:00:00 TS 12.35 84.05 64
NI 21:00:00 TS 12.45 83.75 64
NI 1886-11-08 00:00:00 TS 12.55 83.45 64
NI 03:00:00 TS 12.65 83.13 64
NI 06:00:00 TS 12.74 82.79 64
NI 09:00:00 TS 12.80 82.48 64
NI 12:00:00 TS 12.86 82.16 64
NI 15:00:00 TS 12.95 81.83 64
NI 18:00:00 TS 13.04 81.51 64
NI 21:00:00 TS 13.12 81.25 64
NI 1886-11-09 00:00:00 TS 13.23 80.91 64
NI 03:00:00 TS 13.39 80.40 55
NI 06:00:00 TS 13.59 79.77 47
NI 09:00:00 TS 13.79 79.12 38
NI 12:00:00 TS 14.00 78.45 30
NI 15:00:00 TS 14.20 77.77 30
NI 18:00:00 TS 14.39 77.13 30
NI 21:00:00 TS 14.56 76.49 30
NI 1886-11-10 00:00:00 TS 14.72 75.84 30
NI 03:00:00 TS 14.87 75.16 38
NI 06:00:00 TS 15.03 74.45 47
NI 09:00:00 TS 15.19 73.73 55
NI 12:00:00 TS 15.33 72.98 64
NI 15:00:00 TS 15.45 72.20 64
NI 18:00:00 TS 15.56 71.37 64
NI 21:00:00 TS 15.67 70.50 64
NI 1886-11-11 00:00:00 TS 15.76 69.73 64
NI 03:00:00 TS 15.83 69.21 64
NI 06:00:00 TS 15.88 68.88 64
NI 09:00:00 TS 15.93 68.57 64
NI 12:00:00 TS 15.98 68.31 64
NI 15:00:00 TS 16.02 68.05 64
NI 18:00:00 TS 16.07 67.75 64
NI 21:00:00 TS 16.12 67.45 64
NI 1886-11-12 00:00:00 TS 16.17 67.15 64
NI 03:00:00 TS 16.22 66.85 64
NI 06:00:00 TS 16.27 66.55 64
NI 09:00:00 TS 16.32 66.25 64
NI 12:00:00 TS 16.37 65.95 64
NI 15:00:00 TS 16.42 65.65 64
NI 18:00:00 TS 16.48 65.38 64
NI 21:00:00 TS 16.56 65.15 64
NI 1886-11-13 00:00:00 TS 16.65 64.87 64
NI 03:00:00 TS 16.78 64.47 64
NI 06:00:00 TS 16.90 63.97 64
NI 09:00:00 TS 17.00 63.44 64
NI 12:00:00 TS 17.12 62.88 64
NI 15:00:00 TS 17.28 62.32 64
NI 18:00:00 TS 17.49 61.76 64
NI 21:00:00 TS 17.73 61.22 64
NI 1886-11-14 00:00:00 TS 18.03 60.78 64
NI 03:00:00 TS 18.41 60.48 64
NI 06:00:00 TS 18.86 60.35 64
NI 09:00:00 TS 19.38 60.35 64
NI 12:00:00 TS 19.93 60.44 64
NI 15:00:00 TS 20.45 60.56 64
NI 18:00:00 TS 20.93 60.72 64
NI 21:00:00 TS 21.41 60.93 64
NI 1886-11-15 00:00:00 TS 21.88 61.15 64
NI 03:00:00 NR 22.20 61.30

Source Information

Agency Information
USA
TOKYO
CMA
HKO
NEWDELHI
REUNION
BOM
NADI
WELLINGTON
DS824 n_ind.dat:104:NOT NAMED
TD9636 cons_worldwide_trop_cyclone_18710101-19891231-004:Line=1010
TD9635
NEUMANN
MLC

All available IBTrACS Data

SEASON BASIN SUBBASIN ISO_TIME_________ NATURE LAT LON DIST2LAND LANDFALL IFLAG USA SSHS DS824 LAT DS824 LON DS824 STAGE DS824 WIND TD9636 LAT TD9636 LON TD9636 STAGE STORM SPEED STORM DIR
Year degrees north degrees east km km 1 degrees north degrees east kts degrees north degrees east kts degrees
1886 NI BB 1886-11-02 00:00:00 TS 10.40 92.20 631 631 _________O____ -1 10.40 92.20 TC 30 2 287
1886 NI BB 03:00:00 TS 10.43 92.09 637 637 _________PO___ -1 10.45 92.04 TC 30 10.40 92.20 1 2 289
1886 NI BB 06:00:00 TS 10.48 91.97 647 647 _________OP___ -1 10.50 91.90 TC 30 10.45 92.08 1 2 293
1886 NI BB 09:00:00 TS 10.53 91.87 652 646 _________PP___ -1 10.55 91.80 TC 30 10.50 91.96 1 2 295
1886 NI BB 12:00:00 TS 10.57 91.77 646 646 _________OP___ -1 10.60 91.70 TC 30 10.55 91.84 1 3 292
1886 NI BB 15:00:00 TS 10.63 91.62 656 646 _________PO___ -1 10.65 91.55 TC 38 10.60 91.70 1 3 290
1886 NI BB 18:00:00 TS 10.68 91.48 651 651 _________OP___ -1 10.70 91.40 TC 47 10.66 91.55 1 3 292
1886 NI BB 21:00:00 TS 10.74 91.35 662 652 _________PP___ -1 10.76 91.28 TC 55 10.72 91.41 1 3 294
1886 NI BB 1886-11-03 00:00:00 TS 10.78 91.24 658 658 _________OP___ -1 10.80 91.20 TC 64 10.76 91.29 1 2 294
1886 NI BB 03:00:00 TS 10.80 91.19 658 658 _________PO___ -1 10.81 91.18 TC 64 10.80 91.20 4 1 297
1886 NI BB 06:00:00 TS 10.81 91.18 658 658 _________OP___ -1 10.80 91.20 TC 64 10.81 91.16 4 0 0
1886 NI BB 09:00:00 TS 10.81 91.18 658 658 _________PP___ -1 10.80 91.20 TC 64 10.81 91.16 4 0 0
1886 NI BB 12:00:00 TS 10.80 91.19 658 658 _________OP___ -1 10.80 91.20 TC 64 10.81 91.18 4 0 0
1886 NI BB 15:00:00 TS 10.80 91.20 658 658 _________PO___ -1 10.80 91.20 TC 64 10.80 91.20 4 0 0
1886 NI BB 18:00:00 TS 10.80 91.22 658 658 _________OP___ -1 10.80 91.20 TC 64 10.80 91.23 4 0 96
1886 NI BB 21:00:00 TS 10.80 91.24 658 658 _________PP___ -1 10.80 91.22 TC 64 10.79 91.26 4 0 0
1886 NI BB 1886-11-04 00:00:00 TS 10.80 91.23 658 658 _________OP___ -1 10.80 91.20 TC 64 10.79 91.26 4 1 270
1886 NI BB 03:00:00 TS 10.80 91.14 664 664 _________PO___ -1 10.79 91.09 TC 64 10.80 91.20 4 2 273
1886 NI BB 06:00:00 TS 10.81 90.98 669 669 _________OP___ -1 10.80 90.90 TC 64 10.82 91.06 4 4 278
1886 NI BB 09:00:00 TS 10.85 90.76 682 679 _________PP___ -1 10.85 90.66 TC 64 10.84 90.86 4 5 280
1886 NI BB 12:00:00 TS 10.89 90.52 692 692 _________OP___ -1 10.90 90.40 TC 64 10.87 90.63 4 5 277
1886 NI BB 15:00:00 TS 10.90 90.30 705 705 _________PO___ -1 10.90 90.19 TC 64 10.90 90.40 4 4 274
1886 NI BB 18:00:00 TS 10.91 90.10 719 719 _________OP___ -1 10.90 90.00 TC 64 10.92 90.20 4 4 277
1886 NI BB 21:00:00 TS 10.95 89.90 733 725 _________PP___ -1 10.94 89.80 TC 64 10.95 90.00 4 4 281
1886 NI BB 1886-11-05 00:00:00 TS 10.99 89.70 739 739 _________OP___ -1 11.00 89.60 TC 64 10.97 89.80 4 4 282
1886 NI BB 03:00:00 TS 11.03 89.50 754 754 _________PO___ -1 11.06 89.40 TC 64 11.00 89.60 4 4 280
1886 NI BB 06:00:00 TS 11.06 89.30 762 762 _________OP___ -1 11.10 89.20 TC 64 11.02 89.39 4 4 276
1886 NI BB 09:00:00 TS 11.07 89.09 777 777 _________PP___ -1 11.10 88.99 TC 64 11.04 89.18 4 4 273
1886 NI BB 12:00:00 TS 11.08 88.89 793 793 _________OP___ -1 11.10 88.80 TC 64 11.07 88.99 4 4 278
1886 NI BB 15:00:00 TS 11.12 88.72 809 809 _________PO___ -1 11.14 88.64 TC 64 11.10 88.80 4 3 286
1886 NI BB 18:00:00 TS 11.17 88.58 809 809 _________OP___ -1 11.20 88.50 TC 64 11.14 88.66 4 3 291
1886 NI BB 21:00:00 TS 11.22 88.46 817 817 _________PP___ -1 11.25 88.38 TC 64 11.19 88.54 4 3 290
1886 NI BB 1886-11-06 00:00:00 TS 11.27 88.30 822 803 _________OP___ -1 11.30 88.20 TC 64 11.25 88.39 4 4 284
1886 NI BB 03:00:00 TS 11.33 88.04 793 767 _________PO___ -1 11.35 87.87 TC 64 11.30 88.20 4 6 280
1886 NI BB 06:00:00 TS 11.37 87.71 767 738 _________OP___ -1 11.40 87.50 TC 64 11.35 87.92 4 6 279
1886 NI BB 09:00:00 TS 11.42 87.39 738 714 _________PP___ -1 11.45 87.19 TC 64 11.39 87.59 4 6 279
1886 NI BB 12:00:00 TS 11.47 87.07 714 686 _________OP___ -1 11.50 86.90 TC 64 11.44 87.24 4 6 279
1886 NI BB 15:00:00 TS 11.52 86.75 676 663 _________PO___ -1 11.54 86.59 TC 64 11.50 86.90 4 6 280
1886 NI BB 18:00:00 TS 11.58 86.46 663 636 _________OP___ -1 11.60 86.30 TC 64 11.56 86.62 4 6 285
1886 NI BB 21:00:00 TS 11.66 86.20 642 623 _________PP___ -1 11.69 86.06 TC 64 11.63 86.35 4 5 289
1886 NI BB 1886-11-07 00:00:00 TS 11.76 85.94 620 592 _________OP___ -1 11.80 85.80 TC 64 11.71 86.08 4 6 288
1886 NI BB 03:00:00 TS 11.85 85.63 591 558 _________PO___ -1 11.90 85.46 TC 64 11.80 85.80 4 7 287
1886 NI BB 06:00:00 TS 11.95 85.29 558 524 _________OP___ -1 12.00 85.10 TC 64 11.89 85.49 4 7 287
1886 NI BB 09:00:00 TS 12.05 84.97 524 491 _________PP___ -1 12.10 84.79 TC 64 11.99 85.16 4 6 288
1886 NI BB 12:00:00 TS 12.15 84.66 491 457 _________OP___ -1 12.20 84.50 TC 64 12.10 84.83 4 6 288
1886 NI BB 15:00:00 TS 12.25 84.35 446 424 _________PO___ -1 12.30 84.20 TC 64 12.20 84.50 4 6 289
1886 NI BB 18:00:00 TS 12.35 84.05 413 391 _________OP___ -1 12.40 83.90 TC 64 12.30 84.20 4 6 289
1886 NI BB 21:00:00 TS 12.45 83.75 390 358 _________PP___ -1 12.50 83.61 TC 64 12.41 83.90 4 6 289
1886 NI BB 1886-11-08 00:00:00 TS 12.55 83.45 355 313 _________OP___ -1 12.60 83.30 TC 64 12.51 83.60 4 6 288
1886 NI BB 03:00:00 TS 12.65 83.13 310 279 _________PO___ -1 12.71 82.95 TC 64 12.60 83.30 4 7 286
1886 NI BB 06:00:00 TS 12.74 82.79 279 244 _________OP___ -1 12.80 82.60 TC 64 12.68 82.98 4 6 283
1886 NI BB 09:00:00 TS 12.80 82.48 244 210 _________PP___ -1 12.85 82.30 TC 64 12.75 82.66 4 6 281
1886 NI BB 12:00:00 TS 12.86 82.16 210 168 _________OP___ -1 12.90 82.00 TC 64 12.82 82.33 4 7 283
1886 NI BB 15:00:00 TS 12.95 81.83 168 134 _________PO___ -1 12.99 81.65 TC 64 12.90 82.00 4 7 286
1886 NI BB 18:00:00 TS 13.04 81.51 134 110 _________OP___ -1 13.10 81.30 TC 64 12.98 81.73 4 6 287
1886 NI BB 21:00:00 TS 13.12 81.25 100 65 _________PP___ -1 13.18 81.04 TC 64 13.06 81.45 4 6 288
1886 NI BB 1886-11-09 00:00:00 TS 13.23 80.91 65 10 _________OP___ -1 13.30 80.70 TC 64 13.17 81.12 4 9 288
1886 NI BB 03:00:00 TS 13.39 80.40 10 0 _________PO___ -1 13.49 80.10 TC 55 13.30 80.70 4 12 288
1886 NI BB 06:00:00 TS 13.59 79.77 0 0 _________OP___ -1 13.70 79.40 TC 47 13.48 80.14 4 13 288
1886 NI BB 09:00:00 TS 13.79 79.12 0 0 _________PP___ -1 13.90 78.75 TC 38 13.68 79.50 4 13 288
1886 NI BB 12:00:00 TS 14.00 78.45 0 0 _________OP___ -1 14.10 78.10 TC 30 13.89 78.80 4 14 288
1886 NI AS 15:00:00 TS 14.20 77.77 0 0 _________PO___ -1 14.31 77.45 TC 30 14.10 78.10 1 13 287
1886 NI AS 18:00:00 TS 14.39 77.13 0 0 _________OP___ -1 14.50 76.80 TC 30 14.29 77.46 1 13 286
1886 NI AS 21:00:00 TS 14.56 76.49 0 0 _________PP___ -1 14.66 76.16 TC 30 14.46 76.82 1 13 285
1886 NI AS 1886-11-10 00:00:00 TS 14.72 75.84 0 0 _________OP___ -1 14.80 75.50 TC 30 14.64 76.17 1 13 284
1886 NI AS 03:00:00 TS 14.87 75.16 0 0 _________PO___ -1 14.95 74.81 TC 38 14.80 75.50 1 14 283
1886 NI AS 06:00:00 TS 15.03 74.45 0 0 _________OP___ -1 15.10 74.10 TC 47 14.96 74.81 1 14 283
1886 NI AS 09:00:00 TS 15.19 73.73 24 24 _________PP___ -1 15.26 73.36 TC 55 15.12 74.09 1 15 282
1886 NI AS 12:00:00 TS 15.33 72.98 82 82 _________OP___ -1 15.40 72.60 TC 64 15.27 73.36 1 15 280
1886 NI AS 15:00:00 TS 15.45 72.20 154 154 _________PO___ -1 15.51 71.81 TC 64 15.40 72.60 4 16 278
1886 NI AS 18:00:00 TS 15.56 71.37 226 226 _________OP___ -1 15.60 71.00 TC 64 15.52 71.74 4 17 277
1886 NI AS 21:00:00 TS 15.67 70.50 312 312 _________PP___ -1 15.71 70.13 TC 64 15.63 70.87 4 16 277
1886 NI AS 1886-11-11 00:00:00 TS 15.76 69.73 392 392 _________OP___ -1 15.80 69.40 TC 64 15.72 70.07 4 12 277
1886 NI AS 03:00:00 TS 15.83 69.21 444 444 _________PO___ -1 15.86 69.02 TC 64 15.80 69.40 4 8 278
1886 NI AS 06:00:00 TS 15.88 68.88 474 474 _________OP___ -1 15.90 68.80 TC 64 15.86 68.96 4 6 280
1886 NI AS 09:00:00 TS 15.93 68.57 506 506 _________PP___ -1 15.95 68.50 TC 64 15.91 68.65 4 6 280
1886 NI AS 12:00:00 TS 15.98 68.31 536 536 _________OP___ -1 16.00 68.20 TC 64 15.96 68.42 4 5 280
1886 NI AS 15:00:00 TS 16.02 68.05 558 568 _________PO___ -1 16.05 67.90 TC 64 16.00 68.20 4 5 280
1886 NI AS 18:00:00 TS 16.07 67.75 598 598 _________OP___ -1 16.10 67.60 TC 64 16.05 67.90 4 6 280
1886 NI AS 21:00:00 TS 16.12 67.45 627 624 _________PP___ -1 16.15 67.30 TC 64 16.10 67.60 4 6 280
1886 NI AS 1886-11-12 00:00:00 TS 16.17 67.15 636 636 _________OP___ -1 16.20 67.00 TC 64 16.15 67.30 4 6 280
1886 NI AS 03:00:00 TS 16.22 66.85 648 651 _________PO___ -1 16.25 66.70 TC 64 16.20 67.00 4 6 280
1886 NI AS 06:00:00 TS 16.27 66.55 663 663 _________OP___ -1 16.30 66.40 TC 64 16.25 66.70 4 6 279
1886 NI AS 09:00:00 TS 16.32 66.25 682 680 _________PP___ -1 16.35 66.10 TC 64 16.29 66.39 4 6 280
1886 NI AS 12:00:00 TS 16.37 65.95 693 693 _________OP___ -1 16.40 65.80 TC 64 16.34 66.09 4 6 280
1886 NI AS 15:00:00 TS 16.42 65.65 714 713 _________PO___ -1 16.44 65.49 TC 64 16.40 65.80 4 6 281
1886 NI AS 18:00:00 TS 16.48 65.38 721 721 _________OP___ -1 16.50 65.20 TC 64 16.46 65.56 4 5 286
1886 NI AS 21:00:00 TS 16.56 65.15 735 735 _________PP___ -1 16.58 64.98 TC 64 16.53 65.32 4 5 290
1886 NI AS 1886-11-13 00:00:00 TS 16.65 64.87 743 743 _________OP___ -1 16.70 64.70 TC 64 16.61 65.04 4 7 289
1886 NI AS 03:00:00 TS 16.78 64.47 749 696 _________PO___ -1 16.85 64.25 TC 64 16.70 64.70 4 9 286
1886 NI AS 06:00:00 TS 16.90 63.97 696 643 _________OP___ -1 17.00 63.70 TC 64 16.79 64.24 4 10 283
1886 NI AS 09:00:00 TS 17.00 63.44 633 579 _________PP___ -1 17.09 63.16 TC 64 16.90 63.72 4 11 282
1886 NI AS 12:00:00 TS 17.12 62.88 579 512 _________OP___ -1 17.20 62.60 TC 64 17.03 63.16 4 11 285
1886 NI AS 15:00:00 TS 17.28 62.32 512 454 _________PO___ -1 17.37 62.03 TC 64 17.20 62.60 4 11 289
1886 NI AS 18:00:00 TS 17.49 61.76 454 387 _________OP___ -1 17.60 61.50 TC 64 17.37 62.02 4 11 293
1886 NI AS 21:00:00 TS 17.73 61.22 387 335 _________PP___ -1 17.86 60.99 TC 64 17.59 61.45 4 11 300
1886 NI AS 1886-11-14 00:00:00 TS 18.03 60.78 335 292 _________OP___ -1 18.20 60.60 TC 64 17.86 60.96 4 10 314
1886 NI AS 03:00:00 TS 18.41 60.48 292 267 _________PO___ -1 18.61 60.37 TC 64 18.20 60.60 4 9 334
1886 NI AS 06:00:00 TS 18.86 60.35 260 218 _________OP___ -1 19.10 60.30 TC 64 18.63 60.40 4 10 352
1886 NI AS 09:00:00 TS 19.38 60.35 218 198 _________PP___ -1 19.64 60.35 TC 64 19.12 60.34 4 11 5
1886 NI AS 12:00:00 TS 19.93 60.44 198 167 _________OP___ -1 20.20 60.50 TC 64 19.66 60.38 4 11 11
1886 NI AS 15:00:00 TS 20.45 60.56 168 155 _________PO___ -1 20.71 60.63 TC 64 20.20 60.50 4 10 15
1886 NI AS 18:00:00 TS 20.93 60.72 155 144 _________OP___ -1 21.20 60.80 TC 64 20.72 60.66 4 10 19
1886 NI AS 21:00:00 TS 21.41 60.93 144 135 _________PP___ -1 21.70 61.03 TC 64 21.23 60.86 4 10 23
1886 NI AS 1886-11-15 00:00:00 TS 21.88 61.15 138 138 _________OP___ -1 22.20 61.30 TC 64 21.72 61.07 4 9 24
1886 NI AS 03:00:00 NR 22.20 61.30 154 __________O___ -1 TC 22.20 61.30 4 7 23